Time;durP1;ratioP1;P1;durP2;ratioP2;P2;SDS_P1;SDS_P2;PMS_P1;PMS_P2;Temp;Humidity;BMP_temperature;BMP_pressure;BME280_temperature;BME280_humidity;BME280_pressure;Samples;Min_cycle;Max_cycle;Signal;HPM_P1;HPM_P2
2022/10/01 00:00:07;;;;;;;11.88;2.20;;;14.80;99.90;;;;;;5025665;28;20053;-65
2022/10/01 00:02:36;;;;;;;7.85;1.90;;;14.80;99.90;;;;;;5051729;28;20053;-65
2022/10/01 00:05:05;;;;;;;13.32;2.33;;;14.70;99.90;;;;;;5044608;28;20367;-65
2022/10/01 00:07:39;;;;;;;12.95;2.15;;;14.70;99.90;;;;;;5049690;28;20357;-64
2022/10/01 00:10:06;;;;;;;8.77;2.15;;;14.70;99.90;;;;;;5045449;28;20049;-64
2022/10/01 00:12:33;;;;;;;8.98;2.08;;;14.70;99.90;;;;;;5048327;28;20124;-65
2022/10/01 00:15:01;;;;;;;10.60;2.15;;;14.70;99.90;;;;;;5047715;28;20052;-64
2022/10/01 00:17:32;;;;;;;14.10;2.53;;;14.70;99.90;;;;;;5029723;28;20056;-64
2022/10/01 00:19:59;;;;;;;8.45;1.98;;;14.70;99.90;;;;;;5031502;28;20055;-64
2022/10/01 00:22:26;;;;;;;8.82;2.10;;;14.70;99.90;;;;;;5044069;28;20045;-65
2022/10/01 00:24:52;;;;;;;8.93;1.95;;;14.70;99.90;;;;;;5033225;28;20139;-64
2022/10/01 00:27:19;;;;;;;7.03;1.58;;;14.70;99.90;;;;;;5024591;28;20131;-65
2022/10/01 00:29:46;;;;;;;12.50;2.70;;;14.70;99.90;;;;;;5051216;28;20047;-64
2022/10/01 00:32:13;;;;;;;16.95;2.55;;;14.70;99.90;;;;;;5024028;28;20132;-64
2022/10/01 00:34:40;;;;;;;13.00;2.60;;;14.60;99.90;;;;;;5052188;28;20049;-65
2022/10/01 00:37:09;;;;;;;12.93;2.20;;;14.60;99.90;;;;;;5040809;28;20052;-64
2022/10/01 00:39:36;;;;;;;7.15;1.70;;;14.70;99.90;;;;;;5052662;28;20049;-65
2022/10/01 00:42:04;;;;;;;16.45;2.08;;;14.60;99.90;;;;;;5039791;28;20052;-64
2022/10/01 00:44:33;;;;;;;11.45;2.97;;;14.60;99.90;;;;;;5035147;28;20058;-64
2022/10/01 00:47:07;;;;;;;15.02;2.70;;;14.60;99.90;;;;;;5015564;28;20052;-64
2022/10/01 00:49:34;;;;;;;17.67;3.67;;;14.60;99.90;;;;;;5052138;28;20053;-65
2022/10/01 00:52:03;;;;;;;12.02;1.70;;;14.60;99.90;;;;;;5022743;28;20050;-65
2022/10/01 00:54:45;;;;;;;6.82;2.28;;;14.60;99.90;;;;;;5018299;28;20529;-65
2022/10/01 00:57:13;;;;;;;11.20;2.42;;;14.60;99.90;;;;;;5039995;28;20497;-65
2022/10/01 00:59:39;;;;;;;12.82;2.17;;;14.60;99.90;;;;;;5002221;28;20496;-65
2022/10/01 01:02:06;;;;;;;9.85;2.28;;;14.60;99.90;;;;;;5042159;28;20049;-65
2022/10/01 01:04:33;;;;;;;10.18;2.63;;;14.50;99.90;;;;;;5016027;28;20067;-65
2022/10/01 01:07:00;;;;;;;12.10;3.00;;;14.50;99.90;;;;;;5044554;28;20063;-65
2022/10/01 01:09:30;;;;;;;14.57;2.70;;;14.50;99.90;;;;;;5029555;28;20504;-65
2022/10/01 01:12:54;;;;;;;19.85;2.60;;;14.50;99.90;;;;;;5046166;28;20045;-65
2022/10/01 01:15:35;;;;;;;22.48;3.05;;;14.50;99.90;;;;;;4932787;29;20057;-67
2022/10/01 01:18:20;;;;;;;14.18;3.17;;;14.50;99.90;;;;;;4933544;29;20078;-65
2022/10/01 01:20:52;;;;;;;17.35;2.78;;;14.50;99.90;;;;;;5007689;28;20041;-65
2022/10/01 01:23:34;;;;;;;13.02;2.90;;;14.50;99.90;;;;;;5028160;28;20515;-65
2022/10/01 01:26:16;;;;;;;15.75;3.08;;;14.50;99.90;;;;;;5032042;28;20417;-65
2022/10/01 01:28:45;;;;;;;9.93;2.53;;;14.50;99.90;;;;;;5026648;28;20061;-65
2022/10/01 01:31:18;;;;;;;12.02;2.50;;;14.50;99.90;;;;;;4998572;28;20042;-65
2022/10/01 01:33:45;;;;;;;21.30;3.88;;;14.50;99.90;;;;;;5026795;28;20098;-64
2022/10/01 01:36:34;;;;;;;10.85;2.78;;;14.50;99.90;;;;;;5014354;28;20527;-65
2022/10/01 01:39:05;;;;;;;14.70;2.50;;;14.50;99.90;;;;;;5012775;28;20071;-65
2022/10/01 01:41:34;;;;;;;21.95;3.92;;;14.40;99.90;;;;;;4983025;28;20133;-65
2022/10/01 01:44:02;;;;;;;17.15;3.38;;;14.40;99.90;;;;;;5026486;28;20041;-65
2022/10/01 01:46:32;;;;;;;18.13;3.03;;;14.40;99.90;;;;;;4998272;28;20053;-65
2022/10/01 01:49:00;;;;;;;18.48;3.63;;;14.40;99.90;;;;;;5026620;28;20132;-65
2022/10/01 01:51:31;;;;;;;10.43;2.90;;;14.40;99.90;;;;;;4998117;28;20056;-65
2022/10/01 01:53:58;;;;;;;33.70;4.35;;;14.40;99.90;;;;;;4668231;28;10000620;-65
2022/10/01 01:56:25;;;;;;;20.40;3.30;;;14.40;99.90;;;;;;5010495;28;20045;-65
2022/10/01 01:58:56;;;;;;;19.88;3.15;;;14.40;99.90;;;;;;5022738;28;20423;-65
2022/10/01 02:01:39;;;;;;;17.30;3.38;;;14.40;99.90;;;;;;5036102;28;20045;-65
2022/10/01 02:04:10;;;;;;;18.90;2.83;;;14.40;99.90;;;;;;5044854;28;20057;-65
2022/10/01 02:07:06;;;;;;;22.13;3.58;;;14.30;99.90;;;;;;5020290;28;20056;-64
2022/10/01 02:09:43;;;;;;;19.23;3.50;;;14.30;99.90;;;;;;5044370;28;20049;-65
2022/10/01 02:12:32;;;;;;;16.30;2.80;;;14.30;99.90;;;;;;5018257;28;20564;-65
2022/10/01 02:15:24;;;;;;;17.25;3.25;;;14.30;99.90;;;;;;5028333;28;20407;-65
2022/10/01 02:17:56;;;;;;;10.55;2.70;;;14.30;99.90;;;;;;5017959;28;20124;-64
2022/10/01 02:20:44;;;;;;;23.08;2.75;;;14.20;99.90;;;;;;5025642;28;20403;-64
2022/10/01 02:23:14;;;;;;;14.95;3.20;;;14.20;99.90;;;;;;5037619;28;20045;-65
2022/10/01 02:25:44;;;;;;;13.20;3.47;;;14.20;99.90;;;;;;5021004;28;20135;-65
2022/10/01 02:28:12;;;;;;;17.05;2.92;;;14.20;99.90;;;;;;5021558;28;20067;-65
2022/10/01 02:30:40;;;;;;;21.42;3.17;;;14.20;99.90;;;;;;5024615;28;20543;-65
2022/10/01 02:33:07;;;;;;;16.50;2.95;;;14.20;99.90;;;;;;5021223;28;20514;-65
2022/10/01 02:35:34;;;;;;;19.77;3.75;;;14.20;99.90;;;;;;5024553;28;20051;-64
2022/10/01 02:38:03;;;;;;;11.55;2.60;;;14.10;99.90;;;;;;5053075;28;20045;-65
2022/10/01 02:40:31;;;;;;;23.38;3.58;;;14.10;99.90;;;;;;5016672;28;20524;-65
2022/10/01 02:43:00;;;;;;;18.52;3.38;;;14.10;99.90;;;;;;5021012;28;20044;-64
2022/10/01 02:45:30;;;;;;;23.75;4.63;;;14.10;99.90;;;;;;5027396;28;20056;-64
2022/10/01 02:48:06;;;;;;;25.20;3.95;;;14.00;99.90;;;;;;5034866;28;20563;-64
2022/10/01 02:50:49;;;;;;;19.13;3.05;;;14.00;99.90;;;;;;5028763;28;20081;-64
2022/10/01 02:53:30;;;;;;;15.65;2.92;;;14.00;99.90;;;;;;5037564;28;20045;-64
2022/10/01 02:55:57;;;;;;;17.80;3.25;;;13.90;99.90;;;;;;5022776;28;20132;-65
2022/10/01 02:58:24;;;;;;;19.27;4.40;;;13.90;99.90;;;;;;5037760;28;20041;-65
2022/10/01 03:00:51;;;;;;;17.15;3.38;;;13.90;99.90;;;;;;5031761;28;20489;-65
2022/10/01 03:03:18;;;;;;;25.40;4.07;;;13.90;99.90;;;;;;5032784;28;20049;-66
2022/10/01 03:05:45;;;;;;;21.83;3.78;;;13.90;99.90;;;;;;5030679;28;20060;-65
2022/10/01 03:08:12;;;;;;;22.70;4.43;;;13.80;99.90;;;;;;5030268;28;20052;-65
2022/10/01 03:10:38;;;;;;;17.27;3.45;;;13.80;99.90;;;;;;5033124;28;20079;-66
2022/10/01 03:13:12;;;;;;;23.67;3.35;;;13.80;99.90;;;;;;5046325;28;20495;-66
2022/10/01 03:15:38;;;;;;;23.52;5.10;;;13.80;99.90;;;;;;5052058;28;20049;-65
2022/10/01 03:18:05;;;;;;;24.10;3.67;;;13.80;99.90;;;;;;5010463;28;20064;-66
2022/10/01 03:20:32;;;;;;;16.40;3.05;;;13.80;99.90;;;;;;5035052;28;20041;-66
2022/10/01 03:22:59;;;;;;;24.60;3.42;;;13.70;99.90;;;;;;5042657;28;20049;-65
2022/10/01 03:25:26;;;;;;;18.50;2.92;;;13.70;99.90;;;;;;5052933;28;20053;-65
2022/10/01 03:27:52;;;;;;;21.38;3.58;;;13.70;99.90;;;;;;5044996;28;20485;-65
2022/10/01 03:30:20;;;;;;;25.00;4.40;;;13.70;99.90;;;;;;5034509;28;20052;-65
2022/10/01 03:32:47;;;;;;;28.25;4.13;;;13.70;99.90;;;;;;5046446;28;20048;-66
2022/10/01 03:35:13;;;;;;;22.55;4.22;;;13.60;99.90;;;;;;5000346;28;20053;-65
2022/10/01 03:37:40;;;;;;;32.83;4.43;;;13.60;99.90;;;;;;5045885;28;20056;-65
2022/10/01 03:40:07;;;;;;;18.70;2.80;;;13.60;99.90;;;;;;5033918;28;20041;-65
2022/10/01 03:42:35;;;;;;;22.67;4.15;;;13.60;99.90;;;;;;5044263;28;20049;-65
2022/10/01 03:45:02;;;;;;;22.75;4.47;;;13.60;99.90;;;;;;5035339;28;20056;-66
2022/10/01 03:47:29;;;;;;;20.33;3.95;;;13.60;99.90;;;;;;5042165;28;20048;-65
2022/10/01 03:49:55;;;;;;;40.22;6.38;;;13.60;99.90;;;;;;5037367;28;20049;-66
2022/10/01 03:52:22;;;;;;;22.48;3.45;;;13.50;99.90;;;;;;5039554;28;20086;-65
2022/10/01 03:54:49;;;;;;;23.88;3.20;;;13.50;99.90;;;;;;5039792;28;20493;-65
2022/10/01 03:57:16;;;;;;;26.83;3.88;;;13.50;99.90;;;;;;5019980;28;20045;-65
2022/10/01 03:59:42;;;;;;;25.77;3.10;;;13.50;99.90;;;;;;5041618;28;20050;-65
2022/10/01 04:02:09;;;;;;;18.75;3.13;;;13.50;99.90;;;;;;5035315;28;20046;-65
2022/10/01 04:04:36;;;;;;;21.90;3.10;;;13.50;99.90;;;;;;5053138;28;20420;-65
2022/10/01 04:07:02;;;;;;;28.70;4.53;;;13.50;99.90;;;;;;5033123;28;20045;-65
2022/10/01 04:09:29;;;;;;;19.17;3.28;;;13.40;99.90;;;;;;5044053;28;20457;-64
2022/10/01 04:11:56;;;;;;;22.45;3.10;;;13.40;99.90;;;;;;5033916;28;20050;-65
2022/10/01 04:14:23;;;;;;;21.50;3.75;;;13.50;99.90;;;;;;5044734;28;20069;-64
2022/10/01 04:16:51;;;;;;;17.00;3.28;;;13.40;99.90;;;;;;5033210;28;20050;-64
2022/10/01 04:19:18;;;;;;;19.50;3.30;;;13.40;99.90;;;;;;5028089;28;20051;-65
2022/10/01 04:21:45;;;;;;;23.48;3.85;;;13.40;99.90;;;;;;5015750;28;20073;-65
2022/10/01 04:24:12;;;;;;;24.60;5.45;;;13.40;99.90;;;;;;5044161;28;20055;-65
2022/10/01 04:26:39;;;;;;;13.50;2.55;;;13.30;99.90;;;;;;5032753;28;20416;-66
2022/10/01 04:29:06;;;;;;;11.20;2.85;;;13.30;99.90;;;;;;5009503;28;20064;-65
2022/10/01 04:31:33;;;;;;;28.88;4.00;;;13.30;99.90;;;;;;5017019;28;20053;-65
2022/10/01 04:34:01;;;;;;;25.13;3.85;;;13.30;99.90;;;;;;5041135;28;20052;-65
2022/10/01 04:36:28;;;;;;;20.38;3.88;;;13.30;99.90;;;;;;5018898;28;20077;-65
2022/10/01 04:38:55;;;;;;;21.42;3.55;;;13.30;99.90;;;;;;5038549;28;20080;-65
2022/10/01 04:41:29;;;;;;;15.38;4.35;;;13.30;99.90;;;;;;5021094;28;20045;-64
2022/10/01 04:43:58;;;;;;;14.80;3.30;;;13.20;99.90;;;;;;5020282;28;20044;-65
2022/10/01 04:46:26;;;;;;;17.42;2.55;;;13.20;99.90;;;;;;4998796;28;20481;-66
2022/10/01 04:48:53;;;;;;;14.68;3.13;;;13.20;99.90;;;;;;5035551;28;20037;-66
2022/10/01 04:51:20;;;;;;;22.02;4.05;;;13.20;99.90;;;;;;5041438;28;20406;-64
2022/10/01 04:53:47;;;;;;;17.77;3.05;;;13.20;99.90;;;;;;5016160;28;20140;-65
2022/10/01 04:56:13;;;;;;;19.65;3.50;;;13.20;99.90;;;;;;5043643;28;20077;-65
2022/10/01 04:58:40;;;;;;;20.40;3.72;;;13.20;99.90;;;;;;5016116;28;20049;-65
2022/10/01 05:01:07;;;;;;;37.30;5.45;;;13.20;99.90;;;;;;5025660;28;20493;-65
2022/10/01 05:03:34;;;;;;;29.45;4.60;;;13.20;99.90;;;;;;5032339;28;20060;-65
2022/10/01 05:06:01;;;;;;;21.08;2.97;;;13.10;99.90;;;;;;5039755;28;20044;-65
2022/10/01 05:08:28;;;;;;;25.05;4.00;;;13.10;99.90;;;;;;5034328;28;20049;-64
2022/10/01 05:10:55;;;;;;;22.98;3.03;;;13.10;99.90;;;;;;5021905;28;20045;-65
2022/10/01 05:13:21;;;;;;;24.83;3.88;;;13.10;99.90;;;;;;5034463;28;20041;-65
2022/10/01 05:15:50;;;;;;;19.67;3.35;;;13.10;99.90;;;;;;5040247;28;20046;-65
2022/10/01 05:18:17;;;;;;;38.67;6.32;;;13.10;99.90;;;;;;5031955;28;20055;-65
2022/10/01 05:20:44;;;;;;;29.50;5.57;;;13.00;99.90;;;;;;5041856;28;20045;-65
2022/10/01 05:23:11;;;;;;;22.08;4.10;;;13.10;99.90;;;;;;5016753;28;20045;-65
2022/10/01 05:25:38;;;;;;;21.10;3.72;;;13.00;99.90;;;;;;5021632;28;20511;-65
2022/10/01 05:28:04;;;;;;;32.17;4.35;;;13.00;99.90;;;;;;5036587;28;20052;-65
2022/10/01 05:30:32;;;;;;;29.70;4.68;;;13.00;99.90;;;;;;5019507;28;20037;-64
2022/10/01 05:33:00;;;;;;;21.35;3.50;;;13.00;99.90;;;;;;5004739;28;20045;-64
2022/10/01 05:35:27;;;;;;;27.23;4.10;;;13.00;99.90;;;;;;5017078;28;20049;-64
2022/10/01 05:37:55;;;;;;;25.90;3.58;;;13.00;99.90;;;;;;5023059;28;20053;-65
2022/10/01 05:40:26;;;;;;;31.00;3.97;;;13.00;99.90;;;;;;5032929;28;20401;-65
2022/10/01 05:42:57;;;;;;;30.05;4.03;;;13.00;99.90;;;;;;5041171;28;20470;-65
2022/10/01 05:45:25;;;;;;;24.17;5.95;;;13.00;99.90;;;;;;5050060;28;20042;-65
2022/10/01 05:48:11;;;;;;;22.33;4.65;;;13.00;99.90;;;;;;5040434;28;20075;-65
2022/10/01 05:50:42;;;;;;;22.45;3.67;;;13.00;99.90;;;;;;5050114;28;20040;-65
2022/10/01 05:53:10;;;;;;;26.08;4.25;;;13.00;99.90;;;;;;5040229;28;20049;-65
2022/10/01 05:55:37;;;;;;;30.55;4.50;;;13.00;99.90;;;;;;5050012;28;20049;-65
2022/10/01 05:58:09;;;;;;;20.80;4.05;;;13.00;99.90;;;;;;5022463;28;20484;-65
2022/10/01 06:00:36;;;;;;;30.98;6.13;;;13.00;99.90;;;;;;5050059;28;20041;-65
2022/10/01 06:03:03;;;;;;;23.40;3.47;;;12.90;99.90;;;;;;4994296;28;20052;-64
2022/10/01 06:05:31;;;;;;;28.38;3.85;;;12.90;99.90;;;;;;5001550;28;20043;-64
2022/10/01 06:07:59;;;;;;;29.38;5.13;;;13.00;99.90;;;;;;5039702;28;20084;-64
2022/10/01 06:10:29;;;;;;;31.20;4.32;;;12.90;99.90;;;;;;4992853;28;20094;-65
2022/10/01 06:13:00;;;;;;;17.17;3.33;;;13.00;99.90;;;;;;4999513;28;20049;-63
2022/10/01 06:15:28;;;;;;;24.42;5.10;;;13.00;99.90;;;;;;5034177;28;20045;-64
2022/10/01 06:17:54;;;;;;;23.08;3.22;;;13.00;99.90;;;;;;5021255;28;20049;-64
2022/10/01 06:20:22;;;;;;;25.55;4.78;;;13.00;99.90;;;;;;5031698;28;20412;-64
2022/10/01 06:22:55;;;;;;;24.20;4.00;;;13.00;99.90;;;;;;5023669;28;20091;-64
2022/10/01 06:25:22;;;;;;;23.42;4.43;;;13.00;99.90;;;;;;5035564;28;20072;-64
2022/10/01 06:27:54;;;;;;;22.05;5.03;;;13.00;99.90;;;;;;5044769;28;20490;-64
2022/10/01 06:30:27;;;;;;;15.57;3.03;;;13.00;99.90;;;;;;5016523;28;20084;-64
2022/10/01 06:33:04;;;;;;;28.03;4.47;;;13.00;99.90;;;;;;4688203;28;10000450;-64
2022/10/01 06:35:31;;;;;;;25.73;4.72;;;13.10;99.90;;;;;;5013812;28;20055;-65
2022/10/01 06:38:00;;;;;;;16.75;3.72;;;13.10;99.90;;;;;;5000473;28;20567;-65
2022/10/01 06:40:29;;;;;;;25.35;3.97;;;13.10;99.90;;;;;;5032342;28;20061;-65
2022/10/01 06:42:57;;;;;;;14.45;3.42;;;13.10;99.90;;;;;;5014522;28;20323;-64
2022/10/01 06:45:28;;;;;;;25.13;4.25;;;13.10;99.90;;;;;;5034273;28;20045;-65
2022/10/01 06:48:01;;;;;;;24.17;4.05;;;13.10;99.90;;;;;;5042863;28;20053;-65
2022/10/01 06:50:29;;;;;;;22.63;4.32;;;13.10;99.90;;;;;;5038850;28;20390;-65
2022/10/01 06:52:56;;;;;;;23.52;3.55;;;13.10;99.90;;;;;;5015720;28;20160;-64
2022/10/01 06:55:28;;;;;;;18.83;4.13;;;13.20;99.90;;;;;;5040349;28;20148;-64
2022/10/01 06:57:57;;;;;;;20.30;3.50;;;13.20;99.90;;;;;;5032490;28;20050;-64
2022/10/01 07:00:24;;;;;;;26.88;5.68;;;13.20;99.90;;;;;;5022772;28;20045;-65
2022/10/01 07:02:53;;;;;;;25.55;6.40;;;13.20;99.90;;;;;;5031996;28;20053;-64
2022/10/01 07:05:22;;;;;;;30.38;4.90;;;13.20;99.90;;;;;;5022134;28;20049;-65
2022/10/01 07:07:49;;;;;;;30.73;5.43;;;13.30;99.90;;;;;;5048931;28;20055;-62
2022/10/01 07:10:19;;;;;;;18.33;4.00;;;13.30;99.90;;;;;;5039772;28;20068;-65
2022/10/01 07:12:50;;;;;;;29.55;5.65;;;13.40;99.90;;;;;;5033517;28;20049;-65
2022/10/01 07:15:18;;;;;;;20.83;3.30;;;13.40;99.90;;;;;;5020779;28;20045;-65
2022/10/01 07:17:47;;;;;;;24.58;5.82;;;13.40;99.90;;;;;;5051221;28;20052;-65
2022/10/01 07:20:16;;;;;;;18.75;3.80;;;13.50;99.90;;;;;;5037608;28;20058;-65
2022/10/01 07:22:43;;;;;;;15.95;3.40;;;13.50;99.90;;;;;;5050124;28;20055;-65
2022/10/01 07:25:10;;;;;;;21.52;3.83;;;13.60;99.90;;;;;;5003537;28;20053;-64
2022/10/01 07:27:37;;;;;;;24.23;4.80;;;13.60;99.90;;;;;;5030603;28;20049;-66
2022/10/01 07:30:04;;;;;;;20.77;3.72;;;13.70;99.90;;;;;;5040834;28;20052;-65
2022/10/01 07:32:34;;;;;;;26.67;4.68;;;13.70;99.90;;;;;;5035786;28;20046;-65
2022/10/01 07:35:01;;;;;;;26.08;5.00;;;13.70;99.90;;;;;;5040891;28;20162;-65
2022/10/01 07:37:27;;;;;;;31.50;4.18;;;13.80;99.90;;;;;;5019184;28;20053;-65
2022/10/01 07:39:54;;;;;;;24.60;5.28;;;13.80;99.90;;;;;;5038466;28;20051;-65
2022/10/01 07:42:21;;;;;;;26.25;4.13;;;13.80;99.90;;;;;;5022447;28;20053;-65
2022/10/01 07:44:48;;;;;;;20.30;3.58;;;13.90;99.90;;;;;;5037148;28;20491;-65
2022/10/01 07:47:14;;;;;;;28.17;4.20;;;13.90;99.90;;;;;;5042506;28;20136;-65
2022/10/01 07:49:41;;;;;;;21.88;4.13;;;13.90;99.90;;;;;;5017551;28;20444;-64
2022/10/01 07:52:08;;;;;;;17.92;3.30;;;14.00;99.90;;;;;;5044926;28;20042;-65
2022/10/01 07:54:39;;;;;;;26.25;5.00;;;14.00;99.90;;;;;;5018292;28;20080;-64
2022/10/01 07:57:06;;;;;;;25.83;4.70;;;14.10;99.90;;;;;;5045793;28;20053;-65
2022/10/01 07:59:32;;;;;;;32.45;4.45;;;14.10;99.90;;;;;;5034809;28;20129;-64
2022/10/01 08:02:00;;;;;;;23.60;3.72;;;14.20;99.90;;;;;;5044894;28;20077;-64
2022/10/01 08:07:12;;;;;;;28.23;6.05;;;14.20;99.90;;;;;;5041885;28;20047;-66
2022/10/01 08:09:38;;;;;;;29.98;4.88;;;14.30;99.90;;;;;;5057128;28;20462;-65
2022/10/01 08:12:05;;;;;;;23.50;3.08;;;14.30;99.90;;;;;;5026995;28;20045;-66
2022/10/01 08:14:32;;;;;;;27.38;3.83;;;14.40;99.90;;;;;;5058271;28;20051;-66
2022/10/01 08:16:59;;;;;;;21.83;3.17;;;14.40;99.90;;;;;;5045101;28;20132;-66
2022/10/01 08:19:26;;;;;;;20.75;3.35;;;14.40;99.90;;;;;;5024189;28;20144;-65
2022/10/01 08:21:53;;;;;;;22.73;3.67;;;14.50;99.90;;;;;;5029364;28;20080;-65
2022/10/01 08:24:19;;;;;;;18.23;3.08;;;14.50;99.90;;;;;;5056788;28;20049;-65
2022/10/01 08:26:54;;;;;;;19.85;4.13;;;14.50;99.90;;;;;;5032531;28;20079;-64
2022/10/01 08:29:21;;;;;;;23.23;3.38;;;14.60;99.90;;;;;;5021606;28;20486;-65
2022/10/01 08:31:49;;;;;;;16.65;2.97;;;14.70;99.90;;;;;;5048968;28;20069;-64
2022/10/01 08:34:15;;;;;;;14.75;3.55;;;14.70;99.90;;;;;;5051784;28;20045;-64
2022/10/01 08:36:42;;;;;;;22.95;3.50;;;14.70;99.90;;;;;;5050164;28;20090;-64
2022/10/01 08:39:11;;;;;;;21.83;4.05;;;14.70;99.90;;;;;;5046409;28;20051;-65
2022/10/01 08:41:50;;;;;;;18.35;3.55;;;14.80;99.90;;;;;;5032665;28;20586;-65
2022/10/01 08:44:27;;;;;;;18.90;3.33;;;14.80;99.90;;;;;;5046228;28;20049;-65
2022/10/01 08:47:02;;;;;;;17.63;2.90;;;14.80;99.90;;;;;;5032218;28;20059;-66
2022/10/01 08:49:41;;;;;;;18.95;3.83;;;14.80;99.90;;;;;;5028654;28;20127;-66
2022/10/01 08:52:19;;;;;;;16.10;2.88;;;14.90;99.90;;;;;;5014785;28;20556;-65
2022/10/01 08:54:53;;;;;;;15.82;3.05;;;15.10;99.90;;;;;;5013988;28;20048;-65
2022/10/01 08:57:22;;;;;;;19.42;3.13;;;15.40;99.90;;;;;;5030322;28;20132;-66
2022/10/01 08:59:53;;;;;;;18.08;3.05;;;15.50;99.90;;;;;;5028352;28;20044;-65
2022/10/01 09:02:24;;;;;;;17.67;2.67;;;15.50;99.90;;;;;;5017388;28;20043;-65
2022/10/01 09:04:57;;;;;;;13.57;3.65;;;15.50;99.90;;;;;;5010416;28;20059;-65
2022/10/01 09:07:50;;;;;;;16.60;3.47;;;15.50;99.90;;;;;;5032170;28;20118;-65
2022/10/01 09:10:41;;;;;;;18.00;3.53;;;15.60;99.90;;;;;;5013298;28;20045;-65
2022/10/01 09:13:26;;;;;;;15.30;3.50;;;15.70;99.90;;;;;;5045202;28;20045;-65
2022/10/01 09:16:10;;;;;;;16.77;2.97;;;15.80;99.90;;;;;;5049555;28;20051;-65
2022/10/01 09:18:59;;;;;;;16.40;3.22;;;15.80;99.90;;;;;;5014453;28;20056;-65
2022/10/01 09:21:51;;;;;;;16.48;4.05;;;15.70;99.90;;;;;;5032225;28;20485;-66
2022/10/01 09:24:24;;;;;;;17.17;3.40;;;15.60;99.90;;;;;;5044168;28;20506;-65
2022/10/01 09:26:51;;;;;;;27.73;3.90;;;15.60;99.90;;;;;;5014770;28;20072;-66
2022/10/01 09:29:36;;;;;;;15.15;2.15;;;15.70;99.90;;;;;;5026847;28;20045;-66
2022/10/01 09:32:03;;;;;;;19.27;2.65;;;15.70;99.90;;;;;;4652739;28;10001344;-66
2022/10/01 09:34:34;;;;;;;18.80;3.08;;;15.70;99.90;;;;;;5008026;28;20083;-65
2022/10/01 09:37:19;;;;;;;14.27;2.88;;;15.70;99.90;;;;;;4998458;28;20401;-65
2022/10/01 09:40:14;;;;;;;16.02;2.83;;;15.70;99.90;;;;;;5026524;28;20059;-65
2022/10/01 09:42:41;;;;;;;11.70;2.42;;;15.80;99.90;;;;;;5017185;28;20119;-65
2022/10/01 09:45:14;;;;;;;12.13;2.92;;;15.80;99.90;;;;;;5026602;28;20049;-66
2022/10/01 09:47:43;;;;;;;25.27;3.75;;;15.90;99.90;;;;;;5031900;28;20420;-66
2022/10/01 09:50:13;;;;;;;16.63;2.30;;;15.90;99.90;;;;;;5013670;28;20049;-66
2022/10/01 09:52:40;;;;;;;14.50;2.83;;;16.10;99.90;;;;;;5017163;28;20049;-66
2022/10/01 09:55:38;;;;;;;21.13;3.03;;;16.10;99.90;;;;;;5013835;28;20056;-66
2022/10/01 09:58:11;;;;;;;20.92;2.53;;;16.20;99.90;;;;;;5031577;28;20055;-65
2022/10/01 10:00:39;;;;;;;16.98;3.20;;;16.20;99.90;;;;;;5020876;28;20052;-65
2022/10/01 10:03:06;;;;;;;15.68;3.72;;;16.20;99.90;;;;;;5034334;28;20083;-66
2022/10/01 10:05:42;;;;;;;13.07;3.25;;;16.30;99.90;;;;;;5038990;28;20049;-65
2022/10/01 10:08:14;;;;;;;13.13;2.35;;;16.30;99.90;;;;;;5051703;28;20055;-64
2022/10/01 10:10:51;;;;;;;12.00;1.92;;;16.30;99.90;;;;;;5016164;28;20054;-63
2022/10/01 10:13:26;;;;;;;10.20;2.40;;;16.30;99.90;;;;;;5036450;28;20053;-65
2022/10/01 10:15:57;;;;;;;18.73;2.60;;;16.30;99.90;;;;;;5000059;28;20049;-65
2022/10/01 10:18:34;;;;;;;14.50;2.58;;;16.30;99.90;;;;;;5051419;28;20567;-66
2022/10/01 10:21:03;;;;;;;20.02;2.70;;;16.40;99.90;;;;;;5021184;28;20197;-66
2022/10/01 10:23:30;;;;;;;12.18;1.88;;;16.40;99.90;;;;;;5036564;28;20488;-66
2022/10/01 10:26:04;;;;;;;12.90;3.00;;;16.50;99.90;;;;;;5044522;28;20057;-66
2022/10/01 10:28:39;;;;;;;13.15;2.05;;;16.50;99.90;;;;;;5036680;28;20059;-65
2022/10/01 10:31:20;;;;;;;15.80;2.28;;;16.40;99.90;;;;;;5026796;28;20057;-65
2022/10/01 10:34:15;;;;;;;15.05;2.65;;;16.50;99.90;;;;;;5022458;28;20462;-65
2022/10/01 10:36:43;;;;;;;12.93;2.45;;;16.50;99.90;;;;;;5025497;28;20136;-65
2022/10/01 10:39:29;;;;;;;14.20;2.92;;;16.70;99.90;;;;;;5054605;28;20488;-65
2022/10/01 10:41:57;;;;;;;10.82;2.45;;;16.80;99.90;;;;;;5024991;28;20072;-65
2022/10/01 10:44:29;;;;;;;12.45;2.30;;;16.90;99.90;;;;;;5037488;28;20048;-65
2022/10/01 10:46:59;;;;;;;20.27;3.45;;;16.90;99.90;;;;;;5024330;28;20045;-66
2022/10/01 10:49:28;;;;;;;11.48;2.28;;;17.00;99.90;;;;;;5054497;28;20091;-65
2022/10/01 10:51:56;;;;;;;13.50;2.72;;;17.00;99.90;;;;;;5020700;28;20141;-66
2022/10/01 10:54:37;;;;;;;9.30;2.47;;;17.00;99.90;;;;;;5017422;28;20049;-65
2022/10/01 10:57:27;;;;;;;9.98;3.05;;;17.00;99.90;;;;;;5028120;28;20051;-65
2022/10/01 11:00:07;;;;;;;13.60;2.08;;;17.00;99.90;;;;;;5016794;28;20045;-65
2022/10/01 11:02:34;;;;;;;18.88;3.33;;;17.00;99.90;;;;;;5012444;28;20188;-65
2022/10/01 11:05:18;;;;;;;11.80;2.58;;;17.00;99.90;;;;;;5036749;28;20045;-65
2022/10/01 11:07:45;;;;;;;15.18;2.38;;;17.00;99.90;;;;;;5017934;28;20059;-65
2022/10/01 11:10:26;;;;;;;11.93;2.92;;;17.10;99.90;;;;;;5036656;28;20049;-65
2022/10/01 11:12:59;;;;;;;7.60;3.33;;;17.20;99.90;;;;;;5041444;28;20453;-65
2022/10/01 11:15:29;;;;;;;8.95;1.90;;;17.10;99.90;;;;;;5054376;28;20132;-65
2022/10/01 11:18:08;;;;;;;11.35;1.85;;;17.20;99.90;;;;;;5041356;28;20045;-66
2022/10/01 11:20:49;;;;;;;17.10;2.50;;;17.20;99.90;;;;;;5036785;28;20498;-66
2022/10/01 11:23:50;;;;;;;12.48;2.67;;;17.30;99.90;;;;;;5008402;28;20529;-66
2022/10/01 11:26:36;;;;;;;10.85;2.33;;;17.50;99.90;;;;;;5053433;28;20063;-65
2022/10/01 11:29:22;;;;;;;18.48;3.67;;;17.50;99.90;;;;;;5025868;28;20049;-66
2022/10/01 11:32:02;;;;;;;12.90;2.70;;;17.70;99.90;;;;;;5034531;28;20048;-67
2022/10/01 11:34:47;;;;;;;14.90;2.65;;;17.70;99.90;;;;;;5008578;28;20059;-67
2022/10/01 11:37:14;;;;;;;19.80;3.63;;;17.80;99.90;;;;;;5035662;28;20460;-66
2022/10/01 11:39:43;;;;;;;10.52;2.45;;;17.90;99.90;;;;;;5036009;28;20044;-67
2022/10/01 11:42:16;;;;;;;7.90;1.70;;;17.90;99.90;;;;;;5017985;28;20095;-66
2022/10/01 11:45:02;;;;;;;14.57;2.55;;;17.80;99.90;;;;;;5024585;28;20041;-66
2022/10/01 11:47:38;;;;;;;8.57;2.35;;;17.90;99.90;;;;;;5052004;28;20420;-66
2022/10/01 11:50:15;;;;;;;13.32;2.88;;;17.90;99.90;;;;;;5006149;28;20123;-66
2022/10/01 11:52:57;;;;;;;14.95;2.85;;;18.00;99.90;;;;;;5019061;28;20084;-66
2022/10/01 12:01:33;;;;;;;12.65;2.33;;;17.90;99.90;;;;;;5048817;28;20045;-66
2022/10/01 12:04:25;;;;;;;15.20;2.75;;;17.80;99.90;;;;;;5027158;28;20497;-66
2022/10/01 12:07:15;;;;;;;25.48;3.08;;;17.80;99.90;;;;;;5052685;28;20132;-66
2022/10/01 12:09:54;;;;;;;18.02;3.28;;;17.70;99.90;;;;;;5040210;28;20148;-66
2022/10/01 12:12:28;;;;;;;8.27;2.40;;;17.60;99.90;;;;;;5053181;28;20063;-66
2022/10/01 12:15:18;;;;;;;22.08;2.88;;;17.70;99.90;;;;;;5040252;28;20052;-66
2022/10/01 12:17:57;;;;;;;16.00;3.08;;;17.80;99.90;;;;;;5019125;28;20055;-66
2022/10/01 12:21:09;;;;;;;8.27;2.10;;;17.90;99.90;;;;;;5022898;28;20041;-66
2022/10/01 12:23:42;;;;;;;11.95;2.65;;;17.90;99.90;;;;;;4952365;29;20505;-65
2022/10/01 12:26:30;;;;;;;13.68;3.03;;;18.00;99.90;;;;;;4936797;29;20062;-66
2022/10/01 12:29:06;;;;;;;13.80;3.33;;;18.00;99.90;;;;;;5018056;28;20045;-66
2022/10/01 12:31:40;;;;;;;13.43;2.90;;;18.00;99.90;;;;;;5005702;28;20096;-66
2022/10/01 12:34:17;;;;;;;17.35;2.40;;;18.00;99.90;;;;;;5031083;28;20049;-65
2022/10/01 12:37:09;;;;;;;12.98;2.67;;;18.00;99.90;;;;;;5042981;28;20041;-66
2022/10/01 12:39:46;;;;;;;8.45;1.95;;;18.00;99.90;;;;;;5015308;28;20124;-66
2022/10/01 12:42:30;;;;;;;10.07;3.03;;;17.90;99.90;;;;;;5027392;28;20044;-66
2022/10/01 12:45:32;;;;;;;15.05;3.53;;;18.00;99.90;;;;;;5046933;28;20492;-65
2022/10/01 12:48:08;;;;;;;13.85;2.58;;;18.00;99.90;;;;;;5019029;28;20041;-65
2022/10/01 12:51:12;;;;;;;18.65;2.58;;;18.10;99.90;;;;;;5026460;28;20152;-65
2022/10/01 12:53:48;;;;;;;10.55;1.52;;;18.10;99.90;;;;;;5031441;28;20430;-65
2022/10/01 12:56:15;;;;;;;12.55;2.30;;;18.20;99.90;;;;;;5044554;28;20499;-65
2022/10/01 12:58:50;;;;;;;17.42;3.15;;;18.20;99.90;;;;;;5032250;28;20057;-65
2022/10/01 13:01:35;;;;;;;14.63;2.92;;;18.30;99.90;;;;;;5043905;28;20056;-66
2022/10/01 13:04:17;;;;;;;18.50;3.70;;;18.40;99.90;;;;;;5032532;28;20104;-65
2022/10/01 13:07:02;;;;;;;16.25;2.90;;;18.50;99.90;;;;;;5026939;28;20045;-65
2022/10/01 13:10:00;;;;;;;12.07;2.70;;;18.60;99.90;;;;;;5032111;28;20097;-65
2022/10/01 13:12:53;;;;;;;15.45;2.47;;;18.80;99.90;;;;;;5043160;28;20481;-66